sensor_id;sensor_type;location;lat;lon;timestamp;P1;durP1;ratioP1;P2;durP2;ratioP2
63394;SDS011;49531;-34.520;150.798;2022-07-29T00:00:28;1.08;;;0.98;;
63394;SDS011;49531;-34.520;150.798;2022-07-29T00:02:56;1.00;;;0.90;;
63394;SDS011;49531;-34.520;150.798;2022-07-29T00:05:23;0.93;;;0.88;;
63394;SDS011;49531;-34.520;150.798;2022-07-29T00:07:50;1.25;;;0.85;;
63394;SDS011;49531;-34.520;150.798;2022-07-29T00:10:17;1.42;;;0.88;;
63394;SDS011;49531;-34.520;150.798;2022-07-29T00:12:44;0.88;;;0.73;;
63394;SDS011;49531;-34.520;150.798;2022-07-29T00:15:11;1.17;;;0.70;;
63394;SDS011;49531;-34.520;150.798;2022-07-29T00:17:38;1.55;;;0.80;;
63394;SDS011;49531;-34.520;150.798;2022-07-29T00:20:05;0.82;;;0.80;;
63394;SDS011;49531;-34.520;150.798;2022-07-29T00:22:33;1.27;;;0.93;;
63394;SDS011;49531;-34.520;150.798;2022-07-29T00:25:04;0.88;;;0.80;;
63394;SDS011;49531;-34.520;150.798;2022-07-29T00:27:32;0.75;;;0.75;;
63394;SDS011;49531;-34.520;150.798;2022-07-29T00:29:59;0.90;;;0.80;;
63394;SDS011;49531;-34.520;150.798;2022-07-29T00:32:27;1.20;;;1.00;;
63394;SDS011;49531;-34.520;150.798;2022-07-29T00:34:54;0.70;;;0.70;;
63394;SDS011;49531;-34.520;150.798;2022-07-29T00:37:39;0.85;;;0.70;;
63394;SDS011;49531;-34.520;150.798;2022-07-29T00:40:06;0.70;;;0.70;;
63394;SDS011;49531;-34.520;150.798;2022-07-29T00:42:43;1.30;;;0.80;;
63394;SDS011;49531;-34.520;150.798;2022-07-29T00:45:12;1.95;;;0.60;;
63394;SDS011;49531;-34.520;150.798;2022-07-29T00:47:41;0.60;;;0.60;;
63394;SDS011;49531;-34.520;150.798;2022-07-29T00:50:09;0.70;;;0.70;;
63394;SDS011;49531;-34.520;150.798;2022-07-29T00:52:37;1.38;;;0.90;;
63394;SDS011;49531;-34.520;150.798;2022-07-29T00:55:06;1.90;;;0.80;;
63394;SDS011;49531;-34.520;150.798;2022-07-29T00:57:35;0.70;;;0.70;;
63394;SDS011;49531;-34.520;150.798;2022-07-29T01:00:04;0.82;;;0.65;;
63394;SDS011;49531;-34.520;150.798;2022-07-29T01:02:32;1.00;;;0.70;;
63394;SDS011;49531;-34.520;150.798;2022-07-29T01:05:00;1.58;;;0.90;;
63394;SDS011;49531;-34.520;150.798;2022-07-29T01:07:28;0.70;;;0.70;;
63394;SDS011;49531;-34.520;150.798;2022-07-29T01:09:56;0.60;;;0.60;;
63394;SDS011;49531;-34.520;150.798;2022-07-29T01:12:25;1.35;;;0.70;;
63394;SDS011;49531;-34.520;150.798;2022-07-29T01:14:54;0.88;;;0.70;;
63394;SDS011;49531;-34.520;150.798;2022-07-29T01:23:40;0.95;;;0.65;;
63394;SDS011;49531;-34.520;150.798;2022-07-29T01:29:16;0.90;;;0.70;;
63394;SDS011;49531;-34.520;150.798;2022-07-29T01:34:23;0.75;;;0.50;;
63394;SDS011;49531;-34.520;150.798;2022-07-29T01:37:18;0.65;;;0.60;;
63394;SDS011;49531;-34.520;150.798;2022-07-29T01:40:01;2.33;;;0.60;;
63394;SDS011;49531;-34.520;150.798;2022-07-29T01:42:52;0.73;;;0.60;;
63394;SDS011;49531;-34.520;150.798;2022-07-29T01:45:23;0.80;;;0.70;;
63394;SDS011;49531;-34.520;150.798;2022-07-29T01:48:15;0.70;;;0.63;;
63394;SDS011;49531;-34.520;150.798;2022-07-29T01:50:56;0.80;;;0.60;;
63394;SDS011;49531;-34.520;150.798;2022-07-29T01:53:51;4.93;;;0.68;;
63394;SDS011;49531;-34.520;150.798;2022-07-29T01:56:23;1.30;;;0.63;;
63394;SDS011;49531;-34.520;150.798;2022-07-29T01:58:56;0.60;;;0.60;;
63394;SDS011;49531;-34.520;150.798;2022-07-29T02:01:24;1.15;;;0.70;;
63394;SDS011;49531;-34.520;150.798;2022-07-29T02:03:54;0.60;;;0.60;;
63394;SDS011;49531;-34.520;150.798;2022-07-29T02:06:22;1.23;;;0.60;;
63394;SDS011;49531;-34.520;150.798;2022-07-29T02:08:51;0.95;;;0.80;;
63394;SDS011;49531;-34.520;150.798;2022-07-29T02:11:20;0.93;;;0.60;;
63394;SDS011;49531;-34.520;150.798;2022-07-29T02:13:47;0.90;;;0.70;;
63394;SDS011;49531;-34.520;150.798;2022-07-29T02:16:18;1.13;;;0.70;;
63394;SDS011;49531;-34.520;150.798;2022-07-29T02:18:50;0.60;;;0.60;;
63394;SDS011;49531;-34.520;150.798;2022-07-29T02:21:21;0.70;;;0.60;;
63394;SDS011;49531;-34.520;150.798;2022-07-29T02:23:51;0.60;;;0.60;;
63394;SDS011;49531;-34.520;150.798;2022-07-29T02:26:20;0.70;;;0.60;;
63394;SDS011;49531;-34.520;150.798;2022-07-29T02:28:51;1.80;;;0.70;;
63394;SDS011;49531;-34.520;150.798;2022-07-29T02:31:21;1.15;;;0.70;;
63394;SDS011;49531;-34.520;150.798;2022-07-29T02:33:52;0.70;;;0.70;;
63394;SDS011;49531;-34.520;150.798;2022-07-29T02:36:21;2.97;;;0.70;;
63394;SDS011;49531;-34.520;150.798;2022-07-29T02:38:49;0.65;;;0.60;;
63394;SDS011;49531;-34.520;150.798;2022-07-29T02:41:19;0.93;;;0.60;;
63394;SDS011;49531;-34.520;150.798;2022-07-29T02:43:50;2.03;;;0.80;;
63394;SDS011;49531;-34.520;150.798;2022-07-29T02:46:31;1.58;;;0.70;;
63394;SDS011;49531;-34.520;150.798;2022-07-29T02:51:37;0.70;;;0.70;;
63394;SDS011;49531;-34.520;150.798;2022-07-29T02:54:09;0.95;;;0.70;;
63394;SDS011;49531;-34.520;150.798;2022-07-29T02:56:40;1.23;;;0.70;;
63394;SDS011;49531;-34.520;150.798;2022-07-29T02:59:10;0.70;;;0.70;;
63394;SDS011;49531;-34.520;150.798;2022-07-29T03:01:41;0.90;;;0.68;;
63394;SDS011;49531;-34.520;150.798;2022-07-29T03:04:09;0.70;;;0.70;;
63394;SDS011;49531;-34.520;150.798;2022-07-29T03:06:39;1.63;;;0.70;;
63394;SDS011;49531;-34.520;150.798;2022-07-29T03:09:09;1.17;;;0.70;;
63394;SDS011;49531;-34.520;150.798;2022-07-29T03:11:38;0.80;;;0.80;;
63394;SDS011;49531;-34.520;150.798;2022-07-29T03:14:06;1.45;;;0.80;;
63394;SDS011;49531;-34.520;150.798;2022-07-29T03:16:34;1.30;;;0.80;;
63394;SDS011;49531;-34.520;150.798;2022-07-29T03:19:02;0.85;;;0.70;;
63394;SDS011;49531;-34.520;150.798;2022-07-29T03:21:30;0.88;;;0.80;;
63394;SDS011;49531;-34.520;150.798;2022-07-29T03:23:57;0.75;;;0.70;;
63394;SDS011;49531;-34.520;150.798;2022-07-29T03:26:24;0.63;;;0.63;;
63394;SDS011;49531;-34.520;150.798;2022-07-29T03:28:52;0.80;;;0.60;;
63394;SDS011;49531;-34.520;150.798;2022-07-29T03:31:19;0.60;;;0.60;;
63394;SDS011;49531;-34.520;150.798;2022-07-29T03:33:46;0.88;;;0.70;;
63394;SDS011;49531;-34.520;150.798;2022-07-29T03:36:13;0.75;;;0.70;;
63394;SDS011;49531;-34.520;150.798;2022-07-29T03:38:40;0.85;;;0.60;;
63394;SDS011;49531;-34.520;150.798;2022-07-29T03:41:10;2.05;;;0.70;;
63394;SDS011;49531;-34.520;150.798;2022-07-29T03:43:40;2.65;;;0.70;;
63394;SDS011;49531;-34.520;150.798;2022-07-29T03:46:08;0.82;;;0.65;;
63394;SDS011;49531;-34.520;150.798;2022-07-29T03:48:39;0.60;;;0.60;;
63394;SDS011;49531;-34.520;150.798;2022-07-29T03:51:12;0.57;;;0.57;;
63394;SDS011;49531;-34.520;150.798;2022-07-29T03:53:39;0.60;;;0.60;;
63394;SDS011;49531;-34.520;150.798;2022-07-29T03:56:07;0.70;;;0.68;;
63394;SDS011;49531;-34.520;150.798;2022-07-29T03:58:42;1.17;;;0.73;;
63394;SDS011;49531;-34.520;150.798;2022-07-29T04:01:10;0.60;;;0.60;;
63394;SDS011;49531;-34.520;150.798;2022-07-29T04:03:38;1.08;;;0.70;;
63394;SDS011;49531;-34.520;150.798;2022-07-29T04:06:06;0.65;;;0.65;;
63394;SDS011;49531;-34.520;150.798;2022-07-29T04:08:34;0.63;;;0.60;;
63394;SDS011;49531;-34.520;150.798;2022-07-29T04:11:01;4.32;;;0.80;;
63394;SDS011;49531;-34.520;150.798;2022-07-29T04:13:29;1.58;;;0.75;;
63394;SDS011;49531;-34.520;150.798;2022-07-29T04:15:57;3.03;;;0.70;;
63394;SDS011;49531;-34.520;150.798;2022-07-29T04:18:25;2.03;;;0.80;;
63394;SDS011;49531;-34.520;150.798;2022-07-29T04:20:52;2.15;;;0.80;;
63394;SDS011;49531;-34.520;150.798;2022-07-29T04:23:19;3.10;;;0.80;;
63394;SDS011;49531;-34.520;150.798;2022-07-29T04:25:46;1.33;;;0.90;;
63394;SDS011;49531;-34.520;150.798;2022-07-29T04:28:13;2.35;;;0.90;;
63394;SDS011;49531;-34.520;150.798;2022-07-29T04:30:40;6.70;;;1.20;;
63394;SDS011;49531;-34.520;150.798;2022-07-29T04:33:07;4.57;;;1.00;;
63394;SDS011;49531;-34.520;150.798;2022-07-29T04:35:35;4.82;;;0.90;;
63394;SDS011;49531;-34.520;150.798;2022-07-29T04:38:04;16.17;;;1.00;;
63394;SDS011;49531;-34.520;150.798;2022-07-29T04:40:33;4.68;;;1.17;;
63394;SDS011;49531;-34.520;150.798;2022-07-29T04:43:00;5.85;;;1.00;;
63394;SDS011;49531;-34.520;150.798;2022-07-29T04:45:28;4.38;;;1.00;;
63394;SDS011;49531;-34.520;150.798;2022-07-29T04:47:55;9.63;;;1.08;;
63394;SDS011;49531;-34.520;150.798;2022-07-29T04:50:22;2.15;;;0.88;;
63394;SDS011;49531;-34.520;150.798;2022-07-29T04:52:49;3.00;;;0.77;;
63394;SDS011;49531;-34.520;150.798;2022-07-29T04:55:16;9.98;;;1.58;;
63394;SDS011;49531;-34.520;150.798;2022-07-29T04:57:44;5.03;;;1.30;;
63394;SDS011;49531;-34.520;150.798;2022-07-29T05:00:11;27.50;;;3.30;;
63394;SDS011;49531;-34.520;150.798;2022-07-29T05:02:38;5.28;;;1.20;;
63394;SDS011;49531;-34.520;150.798;2022-07-29T05:05:05;14.52;;;1.95;;
63394;SDS011;49531;-34.520;150.798;2022-07-29T05:07:33;4.00;;;1.13;;
63394;SDS011;49531;-34.520;150.798;2022-07-29T05:10:00;2.60;;;0.80;;
63394;SDS011;49531;-34.520;150.798;2022-07-29T05:12:27;6.88;;;1.02;;
63394;SDS011;49531;-34.520;150.798;2022-07-29T05:14:54;6.80;;;0.90;;
63394;SDS011;49531;-34.520;150.798;2022-07-29T05:17:21;10.95;;;1.10;;
63394;SDS011;49531;-34.520;150.798;2022-07-29T05:19:48;37.08;;;1.83;;
63394;SDS011;49531;-34.520;150.798;2022-07-29T05:22:20;12.93;;;1.17;;
63394;SDS011;49531;-34.520;150.798;2022-07-29T05:24:47;1.90;;;0.98;;
63394;SDS011;49531;-34.520;150.798;2022-07-29T05:27:14;3.92;;;1.38;;
63394;SDS011;49531;-34.520;150.798;2022-07-29T05:29:41;2.22;;;0.90;;
63394;SDS011;49531;-34.520;150.798;2022-07-29T05:32:08;2.88;;;0.80;;
63394;SDS011;49531;-34.520;150.798;2022-07-29T05:34:35;3.03;;;0.80;;
63394;SDS011;49531;-34.520;150.798;2022-07-29T05:37:02;4.15;;;1.00;;
63394;SDS011;49531;-34.520;150.798;2022-07-29T05:39:29;2.92;;;1.10;;
63394;SDS011;49531;-34.520;150.798;2022-07-29T05:41:56;2.00;;;0.98;;
63394;SDS011;49531;-34.520;150.798;2022-07-29T05:44:23;1.70;;;0.90;;
63394;SDS011;49531;-34.520;150.798;2022-07-29T05:46:50;0.80;;;0.80;;
63394;SDS011;49531;-34.520;150.798;2022-07-29T05:49:17;2.65;;;0.82;;
63394;SDS011;49531;-34.520;150.798;2022-07-29T05:51:44;2.85;;;0.90;;
63394;SDS011;49531;-34.520;150.798;2022-07-29T05:54:12;2.83;;;0.80;;
63394;SDS011;49531;-34.520;150.798;2022-07-29T05:56:39;4.75;;;0.80;;
63394;SDS011;49531;-34.520;150.798;2022-07-29T05:59:06;2.88;;;0.88;;
63394;SDS011;49531;-34.520;150.798;2022-07-29T06:01:33;2.72;;;0.70;;
63394;SDS011;49531;-34.520;150.798;2022-07-29T06:04:05;1.27;;;0.82;;
63394;SDS011;49531;-34.520;150.798;2022-07-29T06:06:32;2.35;;;1.00;;
63394;SDS011;49531;-34.520;150.798;2022-07-29T06:09:00;3.63;;;1.00;;
63394;SDS011;49531;-34.520;150.798;2022-07-29T06:11:28;3.25;;;1.70;;
63394;SDS011;49531;-34.520;150.798;2022-07-29T06:13:55;9.63;;;6.18;;
63394;SDS011;49531;-34.520;150.798;2022-07-29T06:16:22;8.85;;;4.65;;
63394;SDS011;49531;-34.520;150.798;2022-07-29T06:18:49;24.98;;;14.32;;
63394;SDS011;49531;-34.520;150.798;2022-07-29T06:21:16;12.10;;;5.07;;
63394;SDS011;49531;-34.520;150.798;2022-07-29T06:23:43;7.03;;;5.35;;
63394;SDS011;49531;-34.520;150.798;2022-07-29T06:26:11;15.48;;;7.63;;
63394;SDS011;49531;-34.520;150.798;2022-07-29T06:28:38;25.70;;;16.50;;
63394;SDS011;49531;-34.520;150.798;2022-07-29T06:31:05;38.45;;;25.17;;
63394;SDS011;49531;-34.520;150.798;2022-07-29T06:33:32;37.72;;;25.90;;
63394;SDS011;49531;-34.520;150.798;2022-07-29T06:35:59;26.42;;;18.00;;
63394;SDS011;49531;-34.520;150.798;2022-07-29T06:38:26;34.50;;;22.00;;
63394;SDS011;49531;-34.520;150.798;2022-07-29T06:40:53;30.33;;;21.25;;
63394;SDS011;49531;-34.520;150.798;2022-07-29T06:43:30;28.63;;;19.77;;
63394;SDS011;49531;-34.520;150.798;2022-07-29T06:46:08;24.88;;;17.88;;
63394;SDS011;49531;-34.520;150.798;2022-07-29T06:48:36;24.98;;;17.45;;
63394;SDS011;49531;-34.520;150.798;2022-07-29T06:51:05;22.55;;;15.80;;
63394;SDS011;49531;-34.520;150.798;2022-07-29T06:53:32;21.90;;;15.20;;
63394;SDS011;49531;-34.520;150.798;2022-07-29T06:56:00;19.88;;;14.23;;
63394;SDS011;49531;-34.520;150.798;2022-07-29T06:58:29;18.17;;;13.27;;
63394;SDS011;49531;-34.520;150.798;2022-07-29T07:01:01;20.25;;;12.80;;
63394;SDS011;49531;-34.520;150.798;2022-07-29T07:03:29;17.88;;;13.05;;
63394;SDS011;49531;-34.520;150.798;2022-07-29T07:05:56;15.73;;;11.88;;
63394;SDS011;49531;-34.520;150.798;2022-07-29T07:08:24;17.20;;;12.50;;
63394;SDS011;49531;-34.520;150.798;2022-07-29T07:10:52;13.98;;;10.68;;
63394;SDS011;49531;-34.520;150.798;2022-07-29T07:13:20;17.25;;;10.57;;
63394;SDS011;49531;-34.520;150.798;2022-07-29T07:15:47;13.77;;;9.57;;
63394;SDS011;49531;-34.520;150.798;2022-07-29T07:18:16;13.73;;;9.13;;
63394;SDS011;49531;-34.520;150.798;2022-07-29T07:20:44;12.02;;;8.43;;
63394;SDS011;49531;-34.520;150.798;2022-07-29T07:23:11;12.25;;;7.97;;
63394;SDS011;49531;-34.520;150.798;2022-07-29T07:25:38;10.60;;;7.60;;
63394;SDS011;49531;-34.520;150.798;2022-07-29T07:28:05;10.18;;;7.07;;
63394;SDS011;49531;-34.520;150.798;2022-07-29T07:30:32;9.13;;;6.53;;
63394;SDS011;49531;-34.520;150.798;2022-07-29T07:32:59;8.93;;;6.40;;
63394;SDS011;49531;-34.520;150.798;2022-07-29T07:35:26;7.65;;;5.80;;
63394;SDS011;49531;-34.520;150.798;2022-07-29T07:37:54;7.57;;;5.75;;
63394;SDS011;49531;-34.520;150.798;2022-07-29T07:40:22;7.53;;;5.50;;
63394;SDS011;49531;-34.520;150.798;2022-07-29T07:42:49;8.93;;;5.15;;
63394;SDS011;49531;-34.520;150.798;2022-07-29T07:45:17;6.63;;;4.68;;
63394;SDS011;49531;-34.520;150.798;2022-07-29T07:47:44;6.15;;;4.28;;
63394;SDS011;49531;-34.520;150.798;2022-07-29T07:50:11;6.25;;;4.43;;
63394;SDS011;49531;-34.520;150.798;2022-07-29T07:52:49;5.82;;;4.10;;
63394;SDS011;49531;-34.520;150.798;2022-07-29T07:55:18;6.55;;;3.92;;
63394;SDS011;49531;-34.520;150.798;2022-07-29T07:57:45;6.00;;;3.70;;
63394;SDS011;49531;-34.520;150.798;2022-07-29T08:00:13;4.55;;;3.20;;
63394;SDS011;49531;-34.520;150.798;2022-07-29T08:02:42;6.40;;;3.17;;
63394;SDS011;49531;-34.520;150.798;2022-07-29T08:05:10;4.53;;;2.83;;
63394;SDS011;49531;-34.520;150.798;2022-07-29T08:07:42;4.85;;;2.90;;
63394;SDS011;49531;-34.520;150.798;2022-07-29T08:10:16;3.97;;;2.75;;
63394;SDS011;49531;-34.520;150.798;2022-07-29T08:13:04;3.83;;;2.67;;
63394;SDS011;49531;-34.520;150.798;2022-07-29T08:15:32;3.58;;;2.70;;
63394;SDS011;49531;-34.520;150.798;2022-07-29T08:18:00;4.60;;;2.75;;
63394;SDS011;49531;-34.520;150.798;2022-07-29T08:20:27;5.50;;;2.72;;
63394;SDS011;49531;-34.520;150.798;2022-07-29T08:22:55;3.33;;;2.60;;
63394;SDS011;49531;-34.520;150.798;2022-07-29T08:25:22;5.10;;;2.40;;
63394;SDS011;49531;-34.520;150.798;2022-07-29T08:27:49;3.67;;;2.63;;
63394;SDS011;49531;-34.520;150.798;2022-07-29T08:30:16;5.03;;;2.70;;
63394;SDS011;49531;-34.520;150.798;2022-07-29T08:32:43;3.78;;;2.40;;
63394;SDS011;49531;-34.520;150.798;2022-07-29T08:35:10;4.25;;;2.72;;
63394;SDS011;49531;-34.520;150.798;2022-07-29T08:37:37;4.32;;;2.50;;
63394;SDS011;49531;-34.520;150.798;2022-07-29T08:40:04;4.00;;;2.22;;
63394;SDS011;49531;-34.520;150.798;2022-07-29T08:42:32;5.50;;;2.60;;
63394;SDS011;49531;-34.520;150.798;2022-07-29T08:44:59;4.22;;;2.80;;
63394;SDS011;49531;-34.520;150.798;2022-07-29T08:47:26;4.40;;;2.58;;
63394;SDS011;49531;-34.520;150.798;2022-07-29T08:49:54;3.15;;;2.53;;
63394;SDS011;49531;-34.520;150.798;2022-07-29T08:52:21;4.45;;;2.90;;
63394;SDS011;49531;-34.520;150.798;2022-07-29T08:54:52;3.20;;;2.60;;
63394;SDS011;49531;-34.520;150.798;2022-07-29T08:57:21;3.95;;;2.53;;
63394;SDS011;49531;-34.520;150.798;2022-07-29T08:59:49;4.05;;;2.40;;
63394;SDS011;49531;-34.520;150.798;2022-07-29T09:02:21;3.90;;;2.60;;
63394;SDS011;49531;-34.520;150.798;2022-07-29T09:04:50;3.33;;;2.50;;
63394;SDS011;49531;-34.520;150.798;2022-07-29T09:07:17;3.45;;;2.38;;
63394;SDS011;49531;-34.520;150.798;2022-07-29T09:09:45;2.75;;;2.20;;
63394;SDS011;49531;-34.520;150.798;2022-07-29T09:12:12;3.03;;;2.20;;
63394;SDS011;49531;-34.520;150.798;2022-07-29T09:14:39;3.22;;;2.17;;
63394;SDS011;49531;-34.520;150.798;2022-07-29T09:17:07;3.63;;;2.00;;
63394;SDS011;49531;-34.520;150.798;2022-07-29T09:19:35;4.57;;;2.30;;
63394;SDS011;49531;-34.520;150.798;2022-07-29T09:22:05;3.28;;;1.98;;
63394;SDS011;49531;-34.520;150.798;2022-07-29T09:27:10;3.00;;;1.90;;
63394;SDS011;49531;-34.520;150.798;2022-07-29T09:29:43;2.63;;;1.75;;
63394;SDS011;49531;-34.520;150.798;2022-07-29T09:32:10;3.42;;;1.80;;
63394;SDS011;49531;-34.520;150.798;2022-07-29T09:34:37;2.95;;;1.63;;
63394;SDS011;49531;-34.520;150.798;2022-07-29T09:37:05;2.45;;;1.52;;
63394;SDS011;49531;-34.520;150.798;2022-07-29T09:39:38;4.28;;;1.70;;
63394;SDS011;49531;-34.520;150.798;2022-07-29T09:42:12;3.17;;;1.75;;
63394;SDS011;49531;-34.520;150.798;2022-07-29T09:47:14;2.80;;;1.50;;
63394;SDS011;49531;-34.520;150.798;2022-07-29T09:50:00;2.25;;;1.55;;
63394;SDS011;49531;-34.520;150.798;2022-07-29T09:52:27;1.85;;;1.30;;
63394;SDS011;49531;-34.520;150.798;2022-07-29T09:55:08;1.35;;;1.25;;
63394;SDS011;49531;-34.520;150.798;2022-07-29T09:57:36;2.65;;;1.50;;
63394;SDS011;49531;-34.520;150.798;2022-07-29T10:00:04;2.10;;;1.50;;
63394;SDS011;49531;-34.520;150.798;2022-07-29T10:02:37;1.85;;;1.38;;
63394;SDS011;49531;-34.520;150.798;2022-07-29T10:05:09;2.15;;;1.20;;
63394;SDS011;49531;-34.520;150.798;2022-07-29T10:07:54;2.70;;;1.30;;
63394;SDS011;49531;-34.520;150.798;2022-07-29T10:10:33;2.22;;;1.58;;
63394;SDS011;49531;-34.520;150.798;2022-07-29T10:13:04;2.13;;;1.38;;
63394;SDS011;49531;-34.520;150.798;2022-07-29T10:15:34;1.80;;;1.30;;
63394;SDS011;49531;-34.520;150.798;2022-07-29T10:18:04;2.78;;;1.25;;
63394;SDS011;49531;-34.520;150.798;2022-07-29T10:20:32;1.70;;;1.40;;
63394;SDS011;49531;-34.520;150.798;2022-07-29T10:23:00;1.52;;;1.30;;
63394;SDS011;49531;-34.520;150.798;2022-07-29T10:25:27;1.30;;;1.20;;
63394;SDS011;49531;-34.520;150.798;2022-07-29T10:27:55;1.35;;;1.20;;
63394;SDS011;49531;-34.520;150.798;2022-07-29T10:30:23;1.40;;;1.23;;
63394;SDS011;49531;-34.520;150.798;2022-07-29T10:38:45;1.45;;;1.08;;
63394;SDS011;49531;-34.520;150.798;2022-07-29T10:44:29;1.85;;;1.40;;
63394;SDS011;49531;-34.520;150.798;2022-07-29T10:46:56;1.95;;;1.30;;
63394;SDS011;49531;-34.520;150.798;2022-07-29T10:49:24;2.00;;;1.50;;
63394;SDS011;49531;-34.520;150.798;2022-07-29T10:59:51;2.03;;;1.80;;
63394;SDS011;49531;-34.520;150.798;2022-07-29T11:02:40;3.40;;;1.73;;
63394;SDS011;49531;-34.520;150.798;2022-07-29T11:05:12;2.63;;;1.63;;
63394;SDS011;49531;-34.520;150.798;2022-07-29T11:08:16;2.78;;;1.80;;
63394;SDS011;49531;-34.520;150.798;2022-07-29T11:10:39;3.17;;;1.63;;
63394;SDS011;49531;-34.520;150.798;2022-07-29T11:13:07;2.67;;;1.60;;
63394;SDS011;49531;-34.520;150.798;2022-07-29T11:15:53;2.67;;;1.60;;
63394;SDS011;49531;-34.520;150.798;2022-07-29T11:18:21;2.80;;;1.73;;
63394;SDS011;49531;-34.520;150.798;2022-07-29T11:20:49;2.13;;;1.60;;
63394;SDS011;49531;-34.520;150.798;2022-07-29T11:23:26;1.77;;;1.40;;
63394;SDS011;49531;-34.520;150.798;2022-07-29T11:28:53;2.17;;;1.52;;
63394;SDS011;49531;-34.520;150.798;2022-07-29T11:31:34;3.65;;;1.50;;
63394;SDS011;49531;-34.520;150.798;2022-07-29T11:39:39;2.13;;;1.30;;
63394;SDS011;49531;-34.520;150.798;2022-07-29T11:47:26;2.17;;;1.50;;
63394;SDS011;49531;-34.520;150.798;2022-07-29T11:49:55;3.67;;;1.50;;
63394;SDS011;49531;-34.520;150.798;2022-07-29T11:52:23;1.85;;;1.20;;
63394;SDS011;49531;-34.520;150.798;2022-07-29T11:55:03;1.88;;;1.27;;
63394;SDS011;49531;-34.520;150.798;2022-07-29T11:57:32;2.47;;;1.45;;
63394;SDS011;49531;-34.520;150.798;2022-07-29T12:00:02;2.33;;;1.30;;
63394;SDS011;49531;-34.520;150.798;2022-07-29T12:02:40;2.90;;;1.52;;
63394;SDS011;49531;-34.520;150.798;2022-07-29T12:05:09;1.38;;;1.27;;
63394;SDS011;49531;-34.520;150.798;2022-07-29T12:07:37;2.40;;;1.27;;
63394;SDS011;49531;-34.520;150.798;2022-07-29T12:10:06;3.28;;;1.15;;
63394;SDS011;49531;-34.520;150.798;2022-07-29T12:12:34;1.98;;;1.25;;
63394;SDS011;49531;-34.520;150.798;2022-07-29T12:15:11;1.90;;;1.35;;
63394;SDS011;49531;-34.520;150.798;2022-07-29T12:17:40;1.77;;;1.30;;
63394;SDS011;49531;-34.520;150.798;2022-07-29T12:20:07;3.08;;;1.40;;
63394;SDS011;49531;-34.520;150.798;2022-07-29T12:22:36;1.27;;;1.00;;
63394;SDS011;49531;-34.520;150.798;2022-07-29T12:25:12;3.45;;;1.20;;
63394;SDS011;49531;-34.520;150.798;2022-07-29T12:27:42;2.30;;;1.30;;
63394;SDS011;49531;-34.520;150.798;2022-07-29T12:30:10;2.40;;;1.30;;
63394;SDS011;49531;-34.520;150.798;2022-07-29T12:32:43;1.90;;;1.20;;
63394;SDS011;49531;-34.520;150.798;2022-07-29T12:35:15;1.60;;;1.00;;
63394;SDS011;49531;-34.520;150.798;2022-07-29T12:37:47;2.13;;;1.10;;
63394;SDS011;49531;-34.520;150.798;2022-07-29T12:40:17;1.65;;;1.20;;
63394;SDS011;49531;-34.520;150.798;2022-07-29T12:43:08;1.98;;;1.10;;
63394;SDS011;49531;-34.520;150.798;2022-07-29T12:45:39;3.42;;;1.30;;
63394;SDS011;49531;-34.520;150.798;2022-07-29T12:48:07;2.33;;;1.10;;
63394;SDS011;49531;-34.520;150.798;2022-07-29T12:50:35;1.85;;;1.30;;
63394;SDS011;49531;-34.520;150.798;2022-07-29T12:53:18;4.00;;;1.05;;
63394;SDS011;49531;-34.520;150.798;2022-07-29T12:55:46;2.10;;;1.25;;
63394;SDS011;49531;-34.520;150.798;2022-07-29T13:06:32;2.10;;;0.90;;
63394;SDS011;49531;-34.520;150.798;2022-07-29T13:11:46;2.65;;;1.20;;
63394;SDS011;49531;-34.520;150.798;2022-07-29T13:14:34;3.83;;;1.05;;
63394;SDS011;49531;-34.520;150.798;2022-07-29T13:17:07;3.63;;;1.02;;
63394;SDS011;49531;-34.520;150.798;2022-07-29T13:19:42;1.65;;;1.10;;
63394;SDS011;49531;-34.520;150.798;2022-07-29T13:22:10;2.65;;;1.10;;
63394;SDS011;49531;-34.520;150.798;2022-07-29T13:24:48;2.83;;;1.05;;
63394;SDS011;49531;-34.520;150.798;2022-07-29T13:27:21;1.15;;;0.90;;
63394;SDS011;49531;-34.520;150.798;2022-07-29T13:32:18;3.40;;;1.10;;
63394;SDS011;49531;-34.520;150.798;2022-07-29T13:34:46;2.15;;;0.98;;
63394;SDS011;49531;-34.520;150.798;2022-07-29T13:37:13;1.33;;;0.90;;
63394;SDS011;49531;-34.520;150.798;2022-07-29T13:39:42;2.05;;;0.98;;
63394;SDS011;49531;-34.520;150.798;2022-07-29T13:42:09;3.63;;;1.00;;
63394;SDS011;49531;-34.520;150.798;2022-07-29T13:44:39;3.30;;;0.90;;
63394;SDS011;49531;-34.520;150.798;2022-07-29T13:47:07;3.50;;;1.15;;
63394;SDS011;49531;-34.520;150.798;2022-07-29T13:49:34;2.00;;;0.90;;
63394;SDS011;49531;-34.520;150.798;2022-07-29T13:52:02;3.47;;;0.90;;
63394;SDS011;49531;-34.520;150.798;2022-07-29T13:54:32;1.67;;;0.90;;
63394;SDS011;49531;-34.520;150.798;2022-07-29T13:57:03;2.13;;;0.95;;
63394;SDS011;49531;-34.520;150.798;2022-07-29T13:59:30;1.20;;;0.90;;
63394;SDS011;49531;-34.520;150.798;2022-07-29T14:01:58;2.22;;;0.88;;
63394;SDS011;49531;-34.520;150.798;2022-07-29T14:04:25;1.98;;;0.90;;
63394;SDS011;49531;-34.520;150.798;2022-07-29T14:06:52;1.33;;;0.90;;
63394;SDS011;49531;-34.520;150.798;2022-07-29T14:09:19;1.85;;;0.95;;
63394;SDS011;49531;-34.520;150.798;2022-07-29T14:11:46;1.60;;;1.00;;
63394;SDS011;49531;-34.520;150.798;2022-07-29T14:14:15;3.50;;;1.00;;
63394;SDS011;49531;-34.520;150.798;2022-07-29T14:16:42;1.15;;;0.88;;
63394;SDS011;49531;-34.520;150.798;2022-07-29T14:19:09;2.08;;;1.00;;
63394;SDS011;49531;-34.520;150.798;2022-07-29T14:21:37;1.30;;;1.00;;
63394;SDS011;49531;-34.520;150.798;2022-07-29T14:24:05;1.70;;;0.90;;
63394;SDS011;49531;-34.520;150.798;2022-07-29T14:26:32;3.05;;;1.00;;
63394;SDS011;49531;-34.520;150.798;2022-07-29T14:28:59;2.30;;;1.00;;
63394;SDS011;49531;-34.520;150.798;2022-07-29T14:31:26;2.63;;;1.00;;
63394;SDS011;49531;-34.520;150.798;2022-07-29T14:33:53;1.27;;;0.82;;
63394;SDS011;49531;-34.520;150.798;2022-07-29T14:36:20;2.65;;;0.93;;
63394;SDS011;49531;-34.520;150.798;2022-07-29T14:38:47;2.25;;;0.90;;
63394;SDS011;49531;-34.520;150.798;2022-07-29T14:41:15;1.58;;;0.80;;
63394;SDS011;49531;-34.520;150.798;2022-07-29T14:43:42;2.05;;;0.80;;
63394;SDS011;49531;-34.520;150.798;2022-07-29T14:46:09;2.30;;;0.80;;
63394;SDS011;49531;-34.520;150.798;2022-07-29T14:48:36;1.08;;;0.80;;
63394;SDS011;49531;-34.520;150.798;2022-07-29T14:51:03;2.83;;;0.90;;
63394;SDS011;49531;-34.520;150.798;2022-07-29T14:53:30;1.77;;;0.80;;
63394;SDS011;49531;-34.520;150.798;2022-07-29T14:55:58;1.33;;;0.70;;
63394;SDS011;49531;-34.520;150.798;2022-07-29T14:58:25;1.15;;;0.70;;
63394;SDS011;49531;-34.520;150.798;2022-07-29T15:00:52;2.35;;;0.70;;
63394;SDS011;49531;-34.520;150.798;2022-07-29T15:03:20;1.15;;;0.80;;
63394;SDS011;49531;-34.520;150.798;2022-07-29T15:05:47;0.80;;;0.80;;
63394;SDS011;49531;-34.520;150.798;2022-07-29T15:08:14;1.25;;;0.70;;
63394;SDS011;49531;-34.520;150.798;2022-07-29T15:10:41;1.35;;;0.68;;
63394;SDS011;49531;-34.520;150.798;2022-07-29T15:13:08;1.55;;;0.70;;
63394;SDS011;49531;-34.520;150.798;2022-07-29T15:15:35;1.20;;;0.60;;
63394;SDS011;49531;-34.520;150.798;2022-07-29T15:18:02;1.17;;;0.60;;
63394;SDS011;49531;-34.520;150.798;2022-07-29T15:20:29;1.13;;;0.80;;
63394;SDS011;49531;-34.520;150.798;2022-07-29T15:22:57;1.77;;;0.70;;